TAF KDAL
KDAL 090656Z 0907/1006 16010KT P6SM SCT010 BKN200 WS020/19045KT FM090730 17011KT 5SM BR BKN009 WS020/22045KT TEMPO 0908/0912 1SM BR BKN005 FM091500 22015G25KT P6SM SCT020 BKN200 FM100000 19011KT P6SM BKN200=
METAR KDAL
KDAL 090553Z 17007KT 8SM FEW010 BKN210 OVC250 13/12 A2986 RMK AO2 SLP109 T01330117 10133 20111 401440061 56012 ?
KDAL 090453Z 16010KT 8SM FEW010 BKN210 OVC250 13/11 A2987 RMK AO2 SLP114 T01280111 ?
KDAL 090353Z 13011KT 10SM SCT210 OVC250 13/10 A2988 RMK AO2 SLP116 T01280100 ?
KDAL 090253Z 14010KT 10SM BKN250 13/10 A2990 RMK AO2 SLP122 T01330100 58012 ?
KDAL 090153Z 14005KT 10SM SCT200 BKN250 13/09 A2992 RMK AO2 SLP129 T01280089 ?
WC KDAL
WS KDAL
WV KDAL